sensor_id;sensor_type;location;lat;lon;timestamp;pressure;altitude;pressure_sealevel;temperature;humidity
60817;BME280;51921;51.518;-3.188;2022-12-18T00:00:13;101617.08;;;-5.50;100.00
60817;BME280;51921;51.518;-3.188;2022-12-18T00:02:37;101613.43;;;-5.45;100.00
60817;BME280;51921;51.518;-3.188;2022-12-18T00:05:03;101605.77;;;-5.79;100.00
60817;BME280;51921;51.518;-3.188;2022-12-18T00:07:27;101601.59;;;-5.58;100.00
60817;BME280;51921;51.518;-3.188;2022-12-18T00:09:53;101593.52;;;-4.86;100.00
60817;BME280;51921;51.518;-3.188;2022-12-18T00:12:19;101586.08;;;-5.11;100.00
60817;BME280;51921;51.518;-3.188;2022-12-18T00:14:44;101586.97;;;-5.26;100.00
60817;BME280;51921;51.518;-3.188;2022-12-18T00:17:10;101590.88;;;-5.52;100.00
60817;BME280;51921;51.518;-3.188;2022-12-18T00:19:35;101587.57;;;-5.21;100.00
60817;BME280;51921;51.518;-3.188;2022-12-18T00:22:01;101586.99;;;-4.80;100.00
60817;BME280;51921;51.518;-3.188;2022-12-18T00:24:27;101583.54;;;-4.39;100.00
60817;BME280;51921;51.518;-3.188;2022-12-18T00:26:52;101582.69;;;-4.79;100.00
60817;BME280;51921;51.518;-3.188;2022-12-18T00:29:18;101570.12;;;-4.72;100.00
60817;BME280;51921;51.518;-3.188;2022-12-18T00:31:43;101557.60;;;-5.89;100.00
60817;BME280;51921;51.518;-3.188;2022-12-18T00:34:10;101557.88;;;-5.37;100.00
60817;BME280;51921;51.518;-3.188;2022-12-18T00:36:35;101562.29;;;-5.24;100.00
60817;BME280;51921;51.518;-3.188;2022-12-18T00:39:02;101570.49;;;-5.61;100.00
60817;BME280;51921;51.518;-3.188;2022-12-18T00:41:27;101563.81;;;-5.32;100.00
60817;BME280;51921;51.518;-3.188;2022-12-18T00:43:52;101560.27;;;-5.60;100.00
60817;BME280;51921;51.518;-3.188;2022-12-18T00:46:17;101553.81;;;-5.67;100.00
60817;BME280;51921;51.518;-3.188;2022-12-18T00:48:42;101554.14;;;-5.60;100.00
60817;BME280;51921;51.518;-3.188;2022-12-18T00:51:07;101547.78;;;-4.86;100.00
60817;BME280;51921;51.518;-3.188;2022-12-18T00:53:33;101554.25;;;-4.96;100.00
60817;BME280;51921;51.518;-3.188;2022-12-18T00:55:58;101550.72;;;-3.87;100.00
60817;BME280;51921;51.518;-3.188;2022-12-18T00:58:24;101548.10;;;-4.56;100.00
60817;BME280;51921;51.518;-3.188;2022-12-18T01:00:49;101549.37;;;-4.58;100.00
60817;BME280;51921;51.518;-3.188;2022-12-18T01:03:14;101549.84;;;-5.05;100.00
60817;BME280;51921;51.518;-3.188;2022-12-18T01:05:40;101552.70;;;-4.76;100.00
60817;BME280;51921;51.518;-3.188;2022-12-18T01:08:05;101550.88;;;-5.75;100.00
60817;BME280;51921;51.518;-3.188;2022-12-18T01:10:32;101557.59;;;-5.38;100.00
60817;BME280;51921;51.518;-3.188;2022-12-18T01:12:57;101564.10;;;-3.62;100.00
60817;BME280;51921;51.518;-3.188;2022-12-18T01:15:22;101563.09;;;-3.18;100.00
60817;BME280;51921;51.518;-3.188;2022-12-18T01:17:48;101564.38;;;-4.16;100.00
60817;BME280;51921;51.518;-3.188;2022-12-18T01:20:13;101564.98;;;-3.52;100.00
60817;BME280;51921;51.518;-3.188;2022-12-18T01:22:39;101569.17;;;-2.00;100.00
60817;BME280;51921;51.518;-3.188;2022-12-18T01:25:05;101566.54;;;-4.11;100.00
60817;BME280;51921;51.518;-3.188;2022-12-18T01:27:30;101564.31;;;-3.57;100.00
60817;BME280;51921;51.518;-3.188;2022-12-18T01:29:55;101563.80;;;-4.21;100.00
60817;BME280;51921;51.518;-3.188;2022-12-18T01:32:21;101559.95;;;-3.91;100.00
60817;BME280;51921;51.518;-3.188;2022-12-18T01:34:46;101557.95;;;-3.88;100.00
60817;BME280;51921;51.518;-3.188;2022-12-18T01:37:11;101553.57;;;-4.90;100.00
60817;BME280;51921;51.518;-3.188;2022-12-18T01:39:37;101542.65;;;-5.44;100.00
60817;BME280;51921;51.518;-3.188;2022-12-18T01:42:03;101529.36;;;-5.80;100.00
60817;BME280;51921;51.518;-3.188;2022-12-18T01:46:54;101531.08;;;-5.78;100.00
60817;BME280;51921;51.518;-3.188;2022-12-18T01:49:19;101529.24;;;-5.85;100.00
60817;BME280;51921;51.518;-3.188;2022-12-18T01:51:45;101520.42;;;-6.15;100.00
60817;BME280;51921;51.518;-3.188;2022-12-18T01:54:10;101510.84;;;-5.43;100.00
60817;BME280;51921;51.518;-3.188;2022-12-18T01:56:36;101507.46;;;-5.43;100.00
60817;BME280;51921;51.518;-3.188;2022-12-18T01:59:03;101510.45;;;-4.00;100.00
60817;BME280;51921;51.518;-3.188;2022-12-18T02:01:29;101507.37;;;-3.54;100.00
60817;BME280;51921;51.518;-3.188;2022-12-18T02:03:53;101502.75;;;-3.76;100.00
60817;BME280;51921;51.518;-3.188;2022-12-18T02:06:22;101509.79;;;-2.53;100.00
60817;BME280;51921;51.518;-3.188;2022-12-18T02:08:51;101511.35;;;-4.26;100.00
60817;BME280;51921;51.518;-3.188;2022-12-18T02:11:14;101510.72;;;-5.11;100.00
60817;BME280;51921;51.518;-3.188;2022-12-18T02:13:42;101503.76;;;-5.77;100.00
60817;BME280;51921;51.518;-3.188;2022-12-18T02:16:04;101507.07;;;-5.45;100.00
60817;BME280;51921;51.518;-3.188;2022-12-18T02:18:29;101507.59;;;-5.84;100.00
60817;BME280;51921;51.518;-3.188;2022-12-18T02:20:55;101509.27;;;-5.63;100.00
60817;BME280;51921;51.518;-3.188;2022-12-18T02:23:26;101521.24;;;-6.04;100.00
60817;BME280;51921;51.518;-3.188;2022-12-18T02:28:09;101521.99;;;-5.56;100.00
60817;BME280;51921;51.518;-3.188;2022-12-18T02:30:34;101521.84;;;-5.42;100.00
60817;BME280;51921;51.518;-3.188;2022-12-18T02:32:59;101516.83;;;-5.44;100.00
60817;BME280;51921;51.518;-3.188;2022-12-18T02:35:24;101514.21;;;-4.88;100.00
60817;BME280;51921;51.518;-3.188;2022-12-18T02:37:49;101509.44;;;-3.80;100.00
60817;BME280;51921;51.518;-3.188;2022-12-18T02:40:15;101502.69;;;-4.67;100.00
60817;BME280;51921;51.518;-3.188;2022-12-18T02:42:39;101502.02;;;-4.91;100.00
60817;BME280;51921;51.518;-3.188;2022-12-18T02:45:06;101499.06;;;-5.22;100.00
60817;BME280;51921;51.518;-3.188;2022-12-18T02:47:32;101494.79;;;-5.23;100.00
60817;BME280;51921;51.518;-3.188;2022-12-18T02:50:04;101490.12;;;-4.31;100.00
60817;BME280;51921;51.518;-3.188;2022-12-18T02:52:28;101495.94;;;-5.05;100.00
60817;BME280;51921;51.518;-3.188;2022-12-18T02:54:55;101502.95;;;-5.30;100.00
60817;BME280;51921;51.518;-3.188;2022-12-18T02:57:18;101508.17;;;-5.02;100.00
60817;BME280;51921;51.518;-3.188;2022-12-18T02:59:44;101499.38;;;-5.31;100.00
60817;BME280;51921;51.518;-3.188;2022-12-18T03:02:07;101498.15;;;-4.99;100.00
60817;BME280;51921;51.518;-3.188;2022-12-18T03:04:32;101499.99;;;-5.03;100.00
60817;BME280;51921;51.518;-3.188;2022-12-18T03:06:56;101497.54;;;-4.71;100.00
60817;BME280;51921;51.518;-3.188;2022-12-18T03:09:25;101488.72;;;-4.71;100.00
60817;BME280;51921;51.518;-3.188;2022-12-18T03:11:52;101475.87;;;-4.33;100.00
60817;BME280;51921;51.518;-3.188;2022-12-18T03:14:13;101475.64;;;-4.94;100.00
60817;BME280;51921;51.518;-3.188;2022-12-18T03:16:36;101469.04;;;-5.41;100.00
60817;BME280;51921;51.518;-3.188;2022-12-18T03:19:04;101461.41;;;-5.12;100.00
60817;BME280;51921;51.518;-3.188;2022-12-18T03:21:29;101465.41;;;-5.50;100.00
60817;BME280;51921;51.518;-3.188;2022-12-18T03:23:53;101462.56;;;-5.24;100.00
60817;BME280;51921;51.518;-3.188;2022-12-18T03:26:20;101460.48;;;-5.44;100.00
60817;BME280;51921;51.518;-3.188;2022-12-18T03:28:47;101455.12;;;-5.51;100.00
60817;BME280;51921;51.518;-3.188;2022-12-18T03:31:10;101452.79;;;-4.84;100.00
60817;BME280;51921;51.518;-3.188;2022-12-18T03:33:39;101446.17;;;-5.02;100.00
60817;BME280;51921;51.518;-3.188;2022-12-18T03:35:59;101434.41;;;-4.92;100.00
60817;BME280;51921;51.518;-3.188;2022-12-18T03:38:25;101436.74;;;-5.00;100.00
60817;BME280;51921;51.518;-3.188;2022-12-18T03:40:58;101428.92;;;-5.29;100.00
60817;BME280;51921;51.518;-3.188;2022-12-18T03:43:20;101418.92;;;-5.02;100.00
60817;BME280;51921;51.518;-3.188;2022-12-18T03:45:43;101417.33;;;-4.95;100.00
60817;BME280;51921;51.518;-3.188;2022-12-18T03:48:11;101404.71;;;-5.33;100.00
60817;BME280;51921;51.518;-3.188;2022-12-18T03:50:39;101394.92;;;-5.09;100.00
60817;BME280;51921;51.518;-3.188;2022-12-18T03:53:02;101391.42;;;-4.99;100.00
60817;BME280;51921;51.518;-3.188;2022-12-18T03:55:25;101385.54;;;-4.81;100.00
60817;BME280;51921;51.518;-3.188;2022-12-18T03:57:49;101380.74;;;-4.85;100.00
60817;BME280;51921;51.518;-3.188;2022-12-18T04:00:17;101373.60;;;-5.12;100.00
60817;BME280;51921;51.518;-3.188;2022-12-18T04:02:43;101367.84;;;-5.25;100.00
60817;BME280;51921;51.518;-3.188;2022-12-18T04:05:07;101363.25;;;-4.86;100.00
60817;BME280;51921;51.518;-3.188;2022-12-18T04:07:30;101361.63;;;-4.89;100.00
60817;BME280;51921;51.518;-3.188;2022-12-18T04:09:56;101356.16;;;-5.09;100.00
60817;BME280;51921;51.518;-3.188;2022-12-18T04:12:21;101359.90;;;-4.95;100.00
60817;BME280;51921;51.518;-3.188;2022-12-18T04:14:47;101354.47;;;-5.09;100.00
60817;BME280;51921;51.518;-3.188;2022-12-18T04:17:12;101353.50;;;-4.96;100.00
60817;BME280;51921;51.518;-3.188;2022-12-18T04:19:38;101350.58;;;-5.21;100.00
60817;BME280;51921;51.518;-3.188;2022-12-18T04:22:03;101347.80;;;-5.11;100.00
60817;BME280;51921;51.518;-3.188;2022-12-18T04:24:29;101338.50;;;-5.19;100.00
60817;BME280;51921;51.518;-3.188;2022-12-18T04:26:54;101328.48;;;-4.99;100.00
60817;BME280;51921;51.518;-3.188;2022-12-18T04:29:19;101328.61;;;-4.29;100.00
60817;BME280;51921;51.518;-3.188;2022-12-18T04:31:45;101330.23;;;-4.62;100.00
60817;BME280;51921;51.518;-3.188;2022-12-18T04:34:10;101328.43;;;-5.10;100.00
60817;BME280;51921;51.518;-3.188;2022-12-18T04:36:35;101324.20;;;-4.84;100.00
60817;BME280;51921;51.518;-3.188;2022-12-18T04:39:00;101323.04;;;-4.99;100.00
60817;BME280;51921;51.518;-3.188;2022-12-18T04:41:26;101316.46;;;-4.73;100.00
60817;BME280;51921;51.518;-3.188;2022-12-18T04:43:52;101315.38;;;-4.94;100.00
60817;BME280;51921;51.518;-3.188;2022-12-18T04:46:17;101317.33;;;-4.43;100.00
60817;BME280;51921;51.518;-3.188;2022-12-18T04:48:45;101309.82;;;-4.92;100.00
60817;BME280;51921;51.518;-3.188;2022-12-18T04:51:08;101307.90;;;-4.90;100.00
60817;BME280;51921;51.518;-3.188;2022-12-18T04:53:34;101302.81;;;-5.09;100.00
60817;BME280;51921;51.518;-3.188;2022-12-18T04:56:04;101300.61;;;-4.87;100.00
60817;BME280;51921;51.518;-3.188;2022-12-18T04:58:25;101291.38;;;-3.96;100.00
60817;BME280;51921;51.518;-3.188;2022-12-18T05:00:50;101286.19;;;-4.23;100.00
60817;BME280;51921;51.518;-3.188;2022-12-18T05:03:16;101273.38;;;-4.51;100.00
60817;BME280;51921;51.518;-3.188;2022-12-18T05:05:41;101268.84;;;-4.11;100.00
60817;BME280;51921;51.518;-3.188;2022-12-18T05:08:07;101265.07;;;-4.55;100.00
60817;BME280;51921;51.518;-3.188;2022-12-18T05:10:33;101258.77;;;-4.41;100.00
60817;BME280;51921;51.518;-3.188;2022-12-18T05:12:58;101254.92;;;-4.68;100.00
60817;BME280;51921;51.518;-3.188;2022-12-18T05:15:24;101250.53;;;-4.59;100.00
60817;BME280;51921;51.518;-3.188;2022-12-18T05:17:49;101242.80;;;-4.54;100.00
60817;BME280;51921;51.518;-3.188;2022-12-18T05:20:14;101246.17;;;-4.39;100.00
60817;BME280;51921;51.518;-3.188;2022-12-18T05:22:39;101248.65;;;-4.22;100.00
60817;BME280;51921;51.518;-3.188;2022-12-18T05:25:05;101254.91;;;-4.12;100.00
60817;BME280;51921;51.518;-3.188;2022-12-18T05:27:30;101246.80;;;-4.22;100.00
60817;BME280;51921;51.518;-3.188;2022-12-18T05:29:56;101251.11;;;-4.05;100.00
60817;BME280;51921;51.518;-3.188;2022-12-18T05:32:21;101242.32;;;-4.32;100.00
60817;BME280;51921;51.518;-3.188;2022-12-18T05:34:47;101243.51;;;-3.45;100.00
60817;BME280;51921;51.518;-3.188;2022-12-18T05:37:12;101238.20;;;-3.48;100.00
60817;BME280;51921;51.518;-3.188;2022-12-18T05:39:37;101242.25;;;-3.92;100.00
60817;BME280;51921;51.518;-3.188;2022-12-18T05:42:03;101241.83;;;-3.74;100.00
60817;BME280;51921;51.518;-3.188;2022-12-18T05:44:29;101240.73;;;-4.42;100.00
60817;BME280;51921;51.518;-3.188;2022-12-18T05:46:54;101242.64;;;-4.48;100.00
60817;BME280;51921;51.518;-3.188;2022-12-18T05:49:20;101239.65;;;-4.37;100.00
60817;BME280;51921;51.518;-3.188;2022-12-18T05:51:45;101236.62;;;-4.01;100.00
60817;BME280;51921;51.518;-3.188;2022-12-18T05:54:11;101234.88;;;-4.52;100.00
60817;BME280;51921;51.518;-3.188;2022-12-18T05:56:36;101239.70;;;-4.26;100.00
60817;BME280;51921;51.518;-3.188;2022-12-18T05:59:01;101241.54;;;-3.85;100.00
60817;BME280;51921;51.518;-3.188;2022-12-18T06:01:27;101238.89;;;-3.82;100.00
60817;BME280;51921;51.518;-3.188;2022-12-18T06:03:53;101229.87;;;-4.11;100.00
60817;BME280;51921;51.518;-3.188;2022-12-18T06:06:21;101224.18;;;-4.26;100.00
60817;BME280;51921;51.518;-3.188;2022-12-18T06:08:43;101229.95;;;-3.69;100.00
60817;BME280;51921;51.518;-3.188;2022-12-18T06:11:09;101236.13;;;-3.69;100.00
60817;BME280;51921;51.518;-3.188;2022-12-18T06:13:34;101253.93;;;-4.33;100.00
60817;BME280;51921;51.518;-3.188;2022-12-18T06:16:02;101256.76;;;-4.13;100.00
60817;BME280;51921;51.518;-3.188;2022-12-18T06:18:25;101250.39;;;-4.60;100.00
60817;BME280;51921;51.518;-3.188;2022-12-18T06:20:56;101251.09;;;-4.38;100.00
60817;BME280;51921;51.518;-3.188;2022-12-18T06:23:16;101243.38;;;-4.08;100.00
60817;BME280;51921;51.518;-3.188;2022-12-18T06:25:42;101249.22;;;-3.77;100.00
60817;BME280;51921;51.518;-3.188;2022-12-18T06:28:07;101245.75;;;-3.70;100.00
60817;BME280;51921;51.518;-3.188;2022-12-18T06:30:33;101248.74;;;-3.64;100.00
60817;BME280;51921;51.518;-3.188;2022-12-18T06:32:57;101251.48;;;-3.57;100.00
60817;BME280;51921;51.518;-3.188;2022-12-18T06:35:23;101251.58;;;-3.78;100.00
60817;BME280;51921;51.518;-3.188;2022-12-18T06:37:48;101245.73;;;-3.89;100.00
60817;BME280;51921;51.518;-3.188;2022-12-18T06:40:14;101234.54;;;-4.03;100.00
60817;BME280;51921;51.518;-3.188;2022-12-18T06:42:39;101233.83;;;-4.07;100.00
60817;BME280;51921;51.518;-3.188;2022-12-18T06:45:06;101227.71;;;-3.78;100.00
60817;BME280;51921;51.518;-3.188;2022-12-18T06:47:30;101228.40;;;-4.05;100.00
60817;BME280;51921;51.518;-3.188;2022-12-18T06:49:56;101222.58;;;-3.97;100.00
60817;BME280;51921;51.518;-3.188;2022-12-18T06:52:22;101209.93;;;-3.85;100.00
60817;BME280;51921;51.518;-3.188;2022-12-18T06:54:47;101211.98;;;-3.80;100.00
60817;BME280;51921;51.518;-3.188;2022-12-18T06:57:13;101212.89;;;-3.23;100.00
60817;BME280;51921;51.518;-3.188;2022-12-18T06:59:38;101213.12;;;-3.26;100.00
60817;BME280;51921;51.518;-3.188;2022-12-18T07:02:04;101215.48;;;-3.05;100.00
60817;BME280;51921;51.518;-3.188;2022-12-18T07:04:30;101218.02;;;-3.08;100.00
60817;BME280;51921;51.518;-3.188;2022-12-18T07:06:55;101216.56;;;-3.59;100.00
60817;BME280;51921;51.518;-3.188;2022-12-18T07:09:20;101217.08;;;-3.97;100.00
60817;BME280;51921;51.518;-3.188;2022-12-18T07:11:45;101212.03;;;-3.64;100.00
60817;BME280;51921;51.518;-3.188;2022-12-18T07:14:11;101207.63;;;-3.13;100.00
60817;BME280;51921;51.518;-3.188;2022-12-18T07:16:37;101197.50;;;-3.00;100.00
60817;BME280;51921;51.518;-3.188;2022-12-18T07:19:02;101188.14;;;-3.45;100.00
60817;BME280;51921;51.518;-3.188;2022-12-18T07:21:27;101185.10;;;-3.39;100.00
60817;BME280;51921;51.518;-3.188;2022-12-18T07:23:53;101187.31;;;-3.60;100.00
60817;BME280;51921;51.518;-3.188;2022-12-18T07:26:20;101173.40;;;-3.65;100.00
60817;BME280;51921;51.518;-3.188;2022-12-18T07:28:43;101179.45;;;-3.88;100.00
60817;BME280;51921;51.518;-3.188;2022-12-18T07:31:10;101195.53;;;-3.69;100.00
60817;BME280;51921;51.518;-3.188;2022-12-18T07:33:34;101195.26;;;-3.36;100.00
60817;BME280;51921;51.518;-3.188;2022-12-18T07:36:00;101192.67;;;-3.93;100.00
60817;BME280;51921;51.518;-3.188;2022-12-18T07:38:25;101187.27;;;-4.01;100.00
60817;BME280;51921;51.518;-3.188;2022-12-18T07:40:51;101184.33;;;-3.83;100.00
60817;BME280;51921;51.518;-3.188;2022-12-18T07:43:17;101189.84;;;-2.66;100.00
60817;BME280;51921;51.518;-3.188;2022-12-18T07:45:43;101190.02;;;-3.50;100.00
60817;BME280;51921;51.518;-3.188;2022-12-18T07:48:08;101188.35;;;-3.11;100.00
60817;BME280;51921;51.518;-3.188;2022-12-18T07:50:33;101186.74;;;-3.40;100.00
60817;BME280;51921;51.518;-3.188;2022-12-18T07:52:58;101176.87;;;-3.65;100.00
60817;BME280;51921;51.518;-3.188;2022-12-18T07:55:23;101169.53;;;-3.38;100.00
60817;BME280;51921;51.518;-3.188;2022-12-18T07:57:48;101161.44;;;-3.80;100.00
60817;BME280;51921;51.518;-3.188;2022-12-18T08:00:14;101156.15;;;-3.67;100.00
60817;BME280;51921;51.518;-3.188;2022-12-18T08:02:39;101162.43;;;-3.78;100.00
60817;BME280;51921;51.518;-3.188;2022-12-18T08:05:05;101160.81;;;-3.59;100.00
60817;BME280;51921;51.518;-3.188;2022-12-18T08:07:31;101155.96;;;-3.82;100.00
60817;BME280;51921;51.518;-3.188;2022-12-18T08:09:56;101136.03;;;-4.07;100.00
60817;BME280;51921;51.518;-3.188;2022-12-18T08:12:23;101141.24;;;-3.83;100.00
60817;BME280;51921;51.518;-3.188;2022-12-18T08:14:47;101137.89;;;-3.35;100.00
60817;BME280;51921;51.518;-3.188;2022-12-18T08:17:13;101139.06;;;-3.74;100.00
60817;BME280;51921;51.518;-3.188;2022-12-18T08:19:38;101145.29;;;-3.79;100.00
60817;BME280;51921;51.518;-3.188;2022-12-18T08:22:04;101161.25;;;-3.66;100.00
60817;BME280;51921;51.518;-3.188;2022-12-18T08:24:29;101162.95;;;-3.27;100.00
60817;BME280;51921;51.518;-3.188;2022-12-18T08:26:55;101150.80;;;-3.64;100.00
60817;BME280;51921;51.518;-3.188;2022-12-18T08:29:21;101147.55;;;-3.91;100.00
60817;BME280;51921;51.518;-3.188;2022-12-18T08:31:46;101148.51;;;-3.42;100.00
60817;BME280;51921;51.518;-3.188;2022-12-18T08:34:12;101136.70;;;-3.54;100.00
60817;BME280;51921;51.518;-3.188;2022-12-18T08:36:37;101130.19;;;-3.76;100.00
60817;BME280;51921;51.518;-3.188;2022-12-18T08:39:03;101134.03;;;-3.64;100.00
60817;BME280;51921;51.518;-3.188;2022-12-18T08:41:28;101138.03;;;-3.69;100.00
60817;BME280;51921;51.518;-3.188;2022-12-18T08:43:54;101143.69;;;-3.69;100.00
60817;BME280;51921;51.518;-3.188;2022-12-18T08:46:20;101134.23;;;-4.10;100.00
60817;BME280;51921;51.518;-3.188;2022-12-18T08:48:45;101133.56;;;-3.99;100.00
60817;BME280;51921;51.518;-3.188;2022-12-18T08:51:10;101131.60;;;-4.05;100.00
60817;BME280;51921;51.518;-3.188;2022-12-18T08:53:35;101131.36;;;-4.04;100.00
60817;BME280;51921;51.518;-3.188;2022-12-18T08:56:01;101120.78;;;-4.05;100.00
60817;BME280;51921;51.518;-3.188;2022-12-18T08:58:26;101112.03;;;-3.88;100.00
60817;BME280;51921;51.518;-3.188;2022-12-18T09:00:51;101114.83;;;-3.58;100.00
60817;BME280;51921;51.518;-3.188;2022-12-18T09:03:21;101115.68;;;-3.85;100.00
60817;BME280;51921;51.518;-3.188;2022-12-18T09:05:42;101108.27;;;-4.16;100.00
60817;BME280;51921;51.518;-3.188;2022-12-18T09:08:08;101116.89;;;-4.06;100.00
60817;BME280;51921;51.518;-3.188;2022-12-18T09:10:34;101124.57;;;-4.30;100.00
60817;BME280;51921;51.518;-3.188;2022-12-18T09:12:59;101119.60;;;-4.15;100.00
60817;BME280;51921;51.518;-3.188;2022-12-18T09:15:24;101120.91;;;-3.92;100.00
60817;BME280;51921;51.518;-3.188;2022-12-18T09:17:49;101112.89;;;-3.87;100.00
60817;BME280;51921;51.518;-3.188;2022-12-18T09:20:16;101102.84;;;-3.70;100.00
60817;BME280;51921;51.518;-3.188;2022-12-18T09:22:40;101099.53;;;-3.72;100.00
60817;BME280;51921;51.518;-3.188;2022-12-18T09:25:06;101096.11;;;-3.67;100.00
60817;BME280;51921;51.518;-3.188;2022-12-18T09:27:31;101086.93;;;-4.03;100.00
60817;BME280;51921;51.518;-3.188;2022-12-18T09:29:56;101075.80;;;-4.05;100.00
60817;BME280;51921;51.518;-3.188;2022-12-18T09:32:21;101066.54;;;-4.32;100.00
60817;BME280;51921;51.518;-3.188;2022-12-18T09:34:47;101068.69;;;-3.93;100.00
60817;BME280;51921;51.518;-3.188;2022-12-18T09:37:13;101060.12;;;-4.23;100.00
60817;BME280;51921;51.518;-3.188;2022-12-18T09:39:38;101053.52;;;-4.31;100.00
60817;BME280;51921;51.518;-3.188;2022-12-18T09:42:04;101049.64;;;-3.85;100.00
60817;BME280;51921;51.518;-3.188;2022-12-18T09:44:31;101034.68;;;-3.81;100.00
60817;BME280;51921;51.518;-3.188;2022-12-18T09:47:03;101023.92;;;-4.09;100.00
60817;BME280;51921;51.518;-3.188;2022-12-18T09:49:24;101022.35;;;-4.01;100.00
60817;BME280;51921;51.518;-3.188;2022-12-18T09:51:50;101025.00;;;-4.23;100.00
60817;BME280;51921;51.518;-3.188;2022-12-18T09:54:15;101018.00;;;-4.09;100.00
60817;BME280;51921;51.518;-3.188;2022-12-18T09:56:41;101015.36;;;-3.64;100.00
60817;BME280;51921;51.518;-3.188;2022-12-18T09:59:04;101013.24;;;-3.32;100.00
60817;BME280;51921;51.518;-3.188;2022-12-18T10:01:29;101000.67;;;-3.85;100.00
60817;BME280;51921;51.518;-3.188;2022-12-18T10:03:54;100998.19;;;-3.88;100.00
60817;BME280;51921;51.518;-3.188;2022-12-18T10:06:21;101001.09;;;-3.72;100.00
60817;BME280;51921;51.518;-3.188;2022-12-18T10:08:49;100998.37;;;-3.88;100.00
60817;BME280;51921;51.518;-3.188;2022-12-18T10:11:23;100998.50;;;-3.48;100.00
60817;BME280;51921;51.518;-3.188;2022-12-18T10:13:39;100997.68;;;-3.08;100.00
60817;BME280;51921;51.518;-3.188;2022-12-18T10:16:09;100989.02;;;-3.69;100.00
60817;BME280;51921;51.518;-3.188;2022-12-18T10:18:37;100986.51;;;-3.66;100.00
60817;BME280;51921;51.518;-3.188;2022-12-18T10:20:56;100984.70;;;-3.31;100.00
60817;BME280;51921;51.518;-3.188;2022-12-18T10:23:21;100977.80;;;-3.49;100.00
60817;BME280;51921;51.518;-3.188;2022-12-18T10:25:50;100959.82;;;-3.68;100.00
60817;BME280;51921;51.518;-3.188;2022-12-18T10:28:12;100952.15;;;-3.47;100.00
60817;BME280;51921;51.518;-3.188;2022-12-18T10:30:34;100947.95;;;-3.70;100.00
60817;BME280;51921;51.518;-3.188;2022-12-18T10:33:00;100943.16;;;-3.41;100.00
60817;BME280;51921;51.518;-3.188;2022-12-18T10:35:26;100935.35;;;-3.32;100.00
60817;BME280;51921;51.518;-3.188;2022-12-18T10:38:00;100932.76;;;-3.32;100.00
60817;BME280;51921;51.518;-3.188;2022-12-18T10:40:15;100928.05;;;-3.26;100.00
60817;BME280;51921;51.518;-3.188;2022-12-18T10:42:41;100924.61;;;-3.46;100.00
60817;BME280;51921;51.518;-3.188;2022-12-18T10:45:11;100924.96;;;-3.50;100.00
60817;BME280;51921;51.518;-3.188;2022-12-18T10:47:33;100915.68;;;-2.96;100.00
60817;BME280;51921;51.518;-3.188;2022-12-18T10:49:57;100915.21;;;-3.51;100.00
60817;BME280;51921;51.518;-3.188;2022-12-18T10:52:24;100915.11;;;-3.01;100.00
60817;BME280;51921;51.518;-3.188;2022-12-18T10:54:50;100905.08;;;-3.12;100.00
60817;BME280;51921;51.518;-3.188;2022-12-18T10:57:17;100892.72;;;-3.05;100.00
60817;BME280;51921;51.518;-3.188;2022-12-18T10:59:50;100884.62;;;-3.29;100.00
60817;BME280;51921;51.518;-3.188;2022-12-18T11:02:23;100883.16;;;-3.00;100.00
60817;BME280;51921;51.518;-3.188;2022-12-18T11:04:32;100871.73;;;-2.97;100.00
60817;BME280;51921;51.518;-3.188;2022-12-18T11:06:59;100870.43;;;-2.76;100.00
60817;BME280;51921;51.518;-3.188;2022-12-18T11:09:23;100864.14;;;-2.76;100.00
60817;BME280;51921;51.518;-3.188;2022-12-18T11:11:49;100855.97;;;-2.69;100.00
60817;BME280;51921;51.518;-3.188;2022-12-18T11:14:16;100848.85;;;-2.01;100.00
60817;BME280;51921;51.518;-3.188;2022-12-18T11:16:43;100839.36;;;-2.59;100.00
60817;BME280;51921;51.518;-3.188;2022-12-18T11:19:20;100838.07;;;-2.95;100.00
60817;BME280;51921;51.518;-3.188;2022-12-18T11:21:28;100830.35;;;-2.50;100.00
60817;BME280;51921;51.518;-3.188;2022-12-18T11:23:54;100820.51;;;-2.57;100.00
60817;BME280;51921;51.518;-3.188;2022-12-18T11:26:20;100811.29;;;-2.60;100.00
60817;BME280;51921;51.518;-3.188;2022-12-18T11:28:49;100799.14;;;-2.22;100.00
60817;BME280;51921;51.518;-3.188;2022-12-18T11:31:18;100796.33;;;-2.37;100.00
60817;BME280;51921;51.518;-3.188;2022-12-18T11:33:37;100791.79;;;-2.62;100.00
60817;BME280;51921;51.518;-3.188;2022-12-18T11:36:02;100787.38;;;-2.47;100.00
60817;BME280;51921;51.518;-3.188;2022-12-18T11:38:29;100785.62;;;-2.65;100.00
60817;BME280;51921;51.518;-3.188;2022-12-18T11:40:59;100783.76;;;-2.69;100.00
60817;BME280;51921;51.518;-3.188;2022-12-18T11:43:21;100781.29;;;-2.50;100.00
60817;BME280;51921;51.518;-3.188;2022-12-18T11:45:49;100777.32;;;-2.31;100.00
60817;BME280;51921;51.518;-3.188;2022-12-18T11:48:14;100765.64;;;-2.50;100.00
60817;BME280;51921;51.518;-3.188;2022-12-18T11:50:41;100767.17;;;-2.21;100.00
60817;BME280;51921;51.518;-3.188;2022-12-18T11:52:59;100762.08;;;-2.06;100.00
60817;BME280;51921;51.518;-3.188;2022-12-18T11:55:31;100756.73;;;-2.52;100.00
60817;BME280;51921;51.518;-3.188;2022-12-18T11:57:55;100749.05;;;-2.34;100.00
60817;BME280;51921;51.518;-3.188;2022-12-18T12:00:21;100742.77;;;-2.56;100.00
60817;BME280;51921;51.518;-3.188;2022-12-18T12:02:50;100736.13;;;-2.18;100.00
60817;BME280;51921;51.518;-3.188;2022-12-18T12:05:25;100735.22;;;-2.40;100.00
60817;BME280;51921;51.518;-3.188;2022-12-18T12:07:40;100729.24;;;-2.65;100.00
60817;BME280;51921;51.518;-3.188;2022-12-18T12:10:03;100721.74;;;-2.73;100.00
60817;BME280;51921;51.518;-3.188;2022-12-18T12:12:32;100709.90;;;-1.78;100.00
60817;BME280;51921;51.518;-3.188;2022-12-18T12:14:53;100702.79;;;-2.56;100.00
60817;BME280;51921;51.518;-3.188;2022-12-18T12:17:20;100691.20;;;-2.76;100.00
60817;BME280;51921;51.518;-3.188;2022-12-18T12:19:44;100686.46;;;-2.70;100.00
60817;BME280;51921;51.518;-3.188;2022-12-18T12:22:09;100681.91;;;-2.70;100.00
60817;BME280;51921;51.518;-3.188;2022-12-18T12:24:37;100666.68;;;-2.47;100.00